createdAt,value
2022-11-01T00:01:32.612Z,55.70
2022-11-01T00:04:00.290Z,68.80
2022-11-01T00:06:27.751Z,155.70
2022-11-01T00:08:55.184Z,72.28
2022-11-01T00:11:22.672Z,59.75
2022-11-01T00:13:50.836Z,20.20
2022-11-01T00:16:19.245Z,41.90
2022-11-01T00:18:47.124Z,39.80
2022-11-01T00:21:15.259Z,17.90
2022-11-01T00:23:43.283Z,34.33
2022-11-01T00:26:11.974Z,18.42
2022-11-01T00:28:39.578Z,118.47
2022-11-01T00:31:10.247Z,90.43
2022-11-01T00:33:40.494Z,55.22
2022-11-01T00:36:08.751Z,48.10
2022-11-01T00:38:36.760Z,77.93
2022-11-01T00:41:04.643Z,23.38
2022-11-01T00:43:32.597Z,48.38
2022-11-01T00:46:00.664Z,32.00
2022-11-01T00:48:28.406Z,47.60
2022-11-01T00:50:55.847Z,62.40
2022-11-01T00:53:23.507Z,24.40
2022-11-01T00:55:50.921Z,17.40
2022-11-01T00:58:18.333Z,26.50
2022-11-01T01:00:46.081Z,21.05
2022-11-01T01:03:13.544Z,15.23
2022-11-01T01:05:40.978Z,15.95
2022-11-01T01:08:08.385Z,11.85
2022-11-01T01:10:36.117Z,11.70
2022-11-01T01:13:04.005Z,13.18
2022-11-01T01:15:31.612Z,13.90
2022-11-01T01:17:59.128Z,14.48
2022-11-01T01:20:26.669Z,12.50
2022-11-01T01:22:54.107Z,22.05
2022-11-01T01:25:22.716Z,21.52
2022-11-01T01:27:50.355Z,18.05
2022-11-01T01:30:18.048Z,19.60
2022-11-01T01:32:45.593Z,27.27
2022-11-01T01:35:13.047Z,18.08
2022-11-01T01:37:40.356Z,14.98
2022-11-01T01:40:09.072Z,15.57
2022-11-01T01:42:37.986Z,10.68
2022-11-01T01:45:05.637Z,35.40
2022-11-01T01:47:34.442Z,36.97
2022-11-01T01:50:05.052Z,24.15
2022-11-01T01:52:33.792Z,20.90
2022-11-01T01:55:03.328Z,36.75
2022-11-01T01:57:30.672Z,45.53
2022-11-01T01:59:58.897Z,21.27
2022-11-01T02:02:26.309Z,74.53
2022-11-01T02:04:58.682Z,34.35
2022-11-01T02:07:26.013Z,33.10
2022-11-01T02:09:54.395Z,24.83
2022-11-01T02:12:23.466Z,28.63
2022-11-01T02:14:51.147Z,16.85
2022-11-01T02:17:48.044Z,17.02
2022-11-01T02:20:34.552Z,59.63
2022-11-01T02:23:11.432Z,45.42
2022-11-01T02:25:57.274Z,24.10
2022-11-01T02:28:27.723Z,13.38
2022-11-01T02:31:04.534Z,47.03
2022-11-01T02:33:35.231Z,99.88
2022-11-01T02:36:09.127Z,72.32
2022-11-01T02:38:36.636Z,33.63
2022-11-01T02:41:21.593Z,220.07
2022-11-01T02:43:54.994Z,149.20
2022-11-01T02:46:42.512Z,163.03
2022-11-01T02:49:12.462Z,149.52
2022-11-01T02:51:39.971Z,166.10
2022-11-01T02:54:11.202Z,171.35
2022-11-01T02:56:40.085Z,122.03
2022-11-01T02:59:10.716Z,174.30
2022-11-01T03:01:38.741Z,103.97
2022-11-01T03:04:06.628Z,143.70
2022-11-01T03:06:40.016Z,120.75
2022-11-01T03:09:10.389Z,129.43
2022-11-01T03:11:55.355Z,182.07
2022-11-01T03:14:33.688Z,138.00
2022-11-01T03:17:03.830Z,180.20
2022-11-01T03:19:49.801Z,122.78
2022-11-01T03:22:24.346Z,138.45
2022-11-01T03:24:51.837Z,144.98
2022-11-01T03:27:32.928Z,124.82
2022-11-01T03:30:05.651Z,129.13
2022-11-01T03:32:35.454Z,123.60
2022-11-01T03:35:04.209Z,127.57
2022-11-01T03:37:32.495Z,175.65
2022-11-01T03:40:03.167Z,140.10
2022-11-01T03:42:30.846Z,24.35
2022-11-01T03:45:00.360Z,127.25
2022-11-01T03:47:27.815Z,61.38
2022-11-01T03:50:13.957Z,126.65
2022-11-01T03:52:41.686Z,154.30
2022-11-01T03:55:18.314Z,141.35
2022-11-01T03:57:49.627Z,91.72
2022-11-01T04:00:24.879Z,37.10
2022-11-01T04:02:53.135Z,76.55
2022-11-01T04:05:23.051Z,60.30
2022-11-01T04:07:51.688Z,16.42
2022-11-01T04:10:19.851Z,14.77
2022-11-01T04:12:48.529Z,32.90
2022-11-01T04:15:35.442Z,14.40
2022-11-01T04:21:10.038Z,37.53
2022-11-01T04:23:37.625Z,15.52
2022-11-01T04:26:05.510Z,31.10
2022-11-01T04:28:33.218Z,46.60
2022-11-01T04:31:00.553Z,11.68
2022-11-01T04:33:28.011Z,9.45
2022-11-01T04:35:55.499Z,13.75
2022-11-01T04:38:22.905Z,65.35
2022-11-01T04:40:50.315Z,18.30
2022-11-01T04:43:17.787Z,15.65
2022-11-01T04:45:45.446Z,11.75
2022-11-01T04:48:13.974Z,13.10
2022-11-01T04:50:42.239Z,13.65
2022-11-01T04:53:10.544Z,72.25
2022-11-01T04:55:38.124Z,12.43
2022-11-01T04:58:06.759Z,10.75
2022-11-01T05:00:34.791Z,35.92
2022-11-01T05:03:06.777Z,18.55
2022-11-01T05:05:34.580Z,28.55
2022-11-01T05:08:06.380Z,7.75
2022-11-01T05:10:34.623Z,9.98
2022-11-01T05:13:02.473Z,12.60
2022-11-01T05:15:30.209Z,14.77
2022-11-01T05:17:58.167Z,9.98
2022-11-01T05:20:25.678Z,12.60
2022-11-01T05:22:53.027Z,24.70
2022-11-01T05:25:20.698Z,6.80
2022-11-01T05:27:48.180Z,9.65
2022-11-01T05:30:16.449Z,14.07
2022-11-01T05:32:43.798Z,10.23
2022-11-01T05:35:11.121Z,7.95
2022-11-01T05:37:38.475Z,11.30
2022-11-01T05:40:06.138Z,22.08
2022-11-01T05:42:33.456Z,5.90
2022-11-01T05:45:01.223Z,6.45
2022-11-01T05:47:28.530Z,7.20
2022-11-01T05:49:55.836Z,7.10
2022-11-01T05:52:23.164Z,6.63
2022-11-01T05:54:50.600Z,6.82
2022-11-01T05:57:18.228Z,7.25
2022-11-01T05:59:45.533Z,7.53
2022-11-01T06:02:13.087Z,5.82
2022-11-01T06:04:40.563Z,6.85
2022-11-01T06:07:08.220Z,7.03
2022-11-01T06:09:35.716Z,6.40
2022-11-01T06:12:03.494Z,8.20
2022-11-01T06:14:30.990Z,9.05
2022-11-01T06:16:58.281Z,232.80
2022-11-01T06:19:25.789Z,190.13
2022-11-01T06:21:53.876Z,10.57
2022-11-01T06:24:21.354Z,107.43
2022-11-01T06:26:49.100Z,10.75
2022-11-01T06:29:18.113Z,6.68
2022-11-01T06:31:45.469Z,6.00
2022-11-01T06:34:13.200Z,44.28
2022-11-01T06:36:40.509Z,5.95
2022-11-01T06:39:07.937Z,25.42
2022-11-01T06:41:35.583Z,65.25
2022-11-01T06:44:02.901Z,11.27
2022-11-01T06:46:30.229Z,9.40
2022-11-01T06:48:57.638Z,11.48
2022-11-01T06:51:24.979Z,7.72
2022-11-01T06:53:53.120Z,6.40
2022-11-01T06:56:20.567Z,9.93
2022-11-01T06:58:51.775Z,54.72
2022-11-01T07:01:21.720Z,10.68
2022-11-01T07:03:52.876Z,13.10
2022-11-01T07:06:20.535Z,8.90
2022-11-01T07:08:47.968Z,10.38
2022-11-01T07:11:15.402Z,8.52
2022-11-01T07:13:43.475Z,13.52
2022-11-01T07:16:11.160Z,7.70
2022-11-01T07:18:38.475Z,7.97
2022-11-01T07:21:06.387Z,6.97
2022-11-01T07:23:34.100Z,7.70
2022-11-01T07:26:01.682Z,7.13
2022-11-01T07:28:29.347Z,7.53
2022-11-01T07:30:57.942Z,8.60
2022-11-01T07:33:25.233Z,5.97
2022-11-01T07:35:53.159Z,8.10
2022-11-01T07:38:20.955Z,6.68
2022-11-01T07:40:50.036Z,6.03
2022-11-01T07:43:18.181Z,7.55
2022-11-01T07:45:46.097Z,6.10
2022-11-01T07:48:15.121Z,6.07
2022-11-01T07:50:43.177Z,7.75
2022-11-01T07:53:12.286Z,5.65
2022-11-01T07:55:40.257Z,8.38
2022-11-01T07:58:08.385Z,8.13
2022-11-01T08:03:10.074Z,7.45
2022-11-01T08:05:37.920Z,11.02
2022-11-01T08:08:06.105Z,9.27
2022-11-01T08:10:34.166Z,10.75
2022-11-01T08:13:02.831Z,8.50
2022-11-01T08:15:30.581Z,8.70
2022-11-01T08:17:58.495Z,9.90
2022-11-01T08:20:26.406Z,11.10
2022-11-01T08:22:56.032Z,10.95
2022-11-01T08:25:24.305Z,11.38
2022-11-01T08:27:52.051Z,10.27
2022-11-01T08:30:19.935Z,11.30
2022-11-01T08:32:47.686Z,12.90
2022-11-01T08:35:15.042Z,18.13
2022-11-01T08:37:49.462Z,15.00
2022-11-01T08:40:17.059Z,16.02
2022-11-01T08:42:44.552Z,14.15
2022-11-01T08:45:12.067Z,14.57
2022-11-01T08:47:40.403Z,13.32
2022-11-01T08:50:11.157Z,14.80
2022-11-01T08:52:39.446Z,14.45
2022-11-01T08:55:07.101Z,14.73
2022-11-01T08:57:34.394Z,13.55
2022-11-01T09:00:02.233Z,12.77
2022-11-01T09:02:29.720Z,15.25
2022-11-01T09:04:57.432Z,28.10
2022-11-01T09:07:24.843Z,20.95
2022-11-01T09:09:52.124Z,18.13
2022-11-01T09:12:24.270Z,32.03
2022-11-01T09:14:52.692Z,17.25
2022-11-01T09:17:20.162Z,25.25
2022-11-01T09:19:47.772Z,18.95
2022-11-01T09:22:15.201Z,17.95
2022-11-01T09:24:42.472Z,17.80
2022-11-01T09:27:10.367Z,18.60
2022-11-01T09:29:37.714Z,20.48
2022-11-01T09:32:06.794Z,26.10
2022-11-01T09:34:34.504Z,25.77
2022-11-01T09:37:02.110Z,15.55
2022-11-01T09:39:30.660Z,21.08
2022-11-01T09:42:05.571Z,15.85
2022-11-01T09:44:35.476Z,16.38
2022-11-01T09:47:05.409Z,14.80
2022-11-01T09:49:34.165Z,21.83
2022-11-01T09:52:01.836Z,16.42
2022-11-01T09:54:29.527Z,19.20
2022-11-01T09:56:57.102Z,16.73
2022-11-01T09:59:27.629Z,17.38
2022-11-01T10:02:09.749Z,19.60
2022-11-01T10:04:44.812Z,19.77
2022-11-01T10:07:21.423Z,22.77
2022-11-01T10:09:57.245Z,20.63
2022-11-01T10:12:30.649Z,14.30
2022-11-01T10:15:03.611Z,22.80
2022-11-01T10:17:31.296Z,42.08
2022-11-01T10:19:58.836Z,27.13
2022-11-01T10:22:31.189Z,27.67
2022-11-01T10:24:59.631Z,20.13
2022-11-01T10:27:56.082Z,14.75
2022-11-01T10:30:23.891Z,21.17
2022-11-01T10:32:58.409Z,21.20
2022-11-01T10:35:30.956Z,17.40
2022-11-01T10:38:30.171Z,19.90
2022-11-01T10:41:05.389Z,19.65
2022-11-01T10:43:35.625Z,14.82
2022-11-01T10:46:05.578Z,19.90
2022-11-01T10:48:34.893Z,20.42
2022-11-01T10:51:04.434Z,19.05
2022-11-01T10:53:33.732Z,24.02
2022-11-01T10:56:05.984Z,21.75
2022-11-01T10:58:42.952Z,20.13
2022-11-01T11:01:16.090Z,20.27
2022-11-01T11:03:45.492Z,15.73
2022-11-01T11:06:15.543Z,26.73
2022-11-01T11:08:44.823Z,17.58
2022-11-01T11:11:15.099Z,25.52
2022-11-01T11:13:48.072Z,19.88
2022-11-01T11:16:32.273Z,18.63
2022-11-01T11:19:26.323Z,23.83
2022-11-01T11:21:54.646Z,15.17
2022-11-01T11:24:25.218Z,16.30
2022-11-01T11:26:54.662Z,17.23
2022-11-01T11:29:29.131Z,19.45
2022-11-01T11:34:27.558Z,21.40
2022-11-01T11:36:55.834Z,16.52
2022-11-01T11:39:27.202Z,16.08
2022-11-01T11:41:54.611Z,18.58
2022-11-01T11:44:38.831Z,15.35
2022-11-01T11:47:06.235Z,15.88
2022-11-01T11:49:33.688Z,19.67
2022-11-01T11:52:01.209Z,19.58
2022-11-01T11:54:36.237Z,18.52
2022-11-01T11:57:25.102Z,13.55
2022-11-01T11:59:54.245Z,17.48
2022-11-01T12:02:24.486Z,15.85
2022-11-01T12:05:04.055Z,14.48
2022-11-01T12:07:51.642Z,16.83
2022-11-01T12:10:45.594Z,22.27
2022-11-01T12:13:24.894Z,18.60
2022-11-01T12:16:13.820Z,24.70
2022-11-01T12:18:55.411Z,21.17
2022-11-01T12:21:27.728Z,16.42
2022-11-01T12:24:01.491Z,17.50
2022-11-01T12:26:29.627Z,15.27
2022-11-01T12:29:00.043Z,15.98
2022-11-01T12:31:31.483Z,11.20
2022-11-01T12:34:21.866Z,9.57
2022-11-01T12:36:58.308Z,17.15
2022-11-01T12:39:34.566Z,14.45
2022-11-01T12:42:04.958Z,12.30
2022-11-01T12:44:34.322Z,13.43
2022-11-01T12:47:01.617Z,13.00
2022-11-01T12:49:29.103Z,15.45
2022-11-01T12:51:58.497Z,11.93
2022-11-01T12:54:29.832Z,12.35
2022-11-01T12:56:57.451Z,11.63
2022-11-01T12:59:27.864Z,10.88
2022-11-01T13:01:55.276Z,16.67
2022-11-01T13:04:36.516Z,9.90
2022-11-01T13:07:10.012Z,16.05
2022-11-01T13:09:52.917Z,14.68
2022-11-01T13:12:46.410Z,9.23
2022-11-01T13:15:13.804Z,13.30
2022-11-01T13:17:41.108Z,15.55
2022-11-01T13:20:08.548Z,15.05
2022-11-01T13:22:47.050Z,9.00
2022-11-01T13:25:20.241Z,12.82
2022-11-01T13:28:02.627Z,13.63
2022-11-01T13:30:31.110Z,11.15
2022-11-01T13:32:59.465Z,16.50
2022-11-01T13:35:26.800Z,12.48
2022-11-01T13:38:00.277Z,8.52
2022-11-01T13:40:33.814Z,13.50
2022-11-01T13:43:14.426Z,10.50
2022-11-01T13:45:47.669Z,8.32
2022-11-01T13:48:14.986Z,9.32
2022-11-01T13:51:01.190Z,12.23
2022-11-01T13:53:34.750Z,11.27
2022-11-01T13:56:12.536Z,13.23
2022-11-01T13:58:40.540Z,11.52
2022-11-01T14:01:26.813Z,18.75
2022-11-01T14:04:12.776Z,9.55
2022-11-01T14:07:01.254Z,8.98
2022-11-01T14:09:32.845Z,11.10
2022-11-01T14:12:06.587Z,11.98
2022-11-01T14:14:35.701Z,8.35
2022-11-01T14:17:23.439Z,8.95
2022-11-01T14:20:12.010Z,11.60
2022-11-01T14:22:41.820Z,12.02
2022-11-01T14:25:12.737Z,7.95
2022-11-01T14:27:41.514Z,8.30
2022-11-01T14:30:16.042Z,8.45
2022-11-01T14:32:51.704Z,9.68
2022-11-01T14:35:19.187Z,9.77
2022-11-01T14:37:48.323Z,6.72
2022-11-01T14:40:33.119Z,6.40
2022-11-01T14:43:13.082Z,10.52
2022-11-01T14:45:44.672Z,11.43
2022-11-01T14:48:20.025Z,8.35
2022-11-01T14:50:51.174Z,11.50
2022-11-01T14:53:22.892Z,8.88
2022-11-01T14:55:50.971Z,12.23
2022-11-01T14:58:20.595Z,9.45
2022-11-01T15:00:49.004Z,6.22
2022-11-01T15:03:17.447Z,9.55
2022-11-01T15:05:54.759Z,9.27
2022-11-01T15:08:25.366Z,9.40
2022-11-01T15:10:53.958Z,8.90
2022-11-01T15:13:21.576Z,14.10
2022-11-01T15:16:11.995Z,13.50
2022-11-01T15:18:44.313Z,15.13
2022-11-01T15:21:15.880Z,9.52
2022-11-01T15:23:45.670Z,6.90
2022-11-01T15:26:13.338Z,6.82
2022-11-01T15:28:42.025Z,12.38
2022-11-01T15:31:10.149Z,11.93
2022-11-01T15:33:37.686Z,15.50
2022-11-01T15:36:09.556Z,7.55
2022-11-01T15:38:49.830Z,12.88
2022-11-01T15:41:36.158Z,14.43
2022-11-01T15:44:08.028Z,12.98
2022-11-01T15:46:40.179Z,15.30
2022-11-01T15:49:12.125Z,7.85
2022-11-01T15:51:46.632Z,10.13
2022-11-01T15:54:21.501Z,10.57
2022-11-01T15:56:51.382Z,7.90
2022-11-01T15:59:30.539Z,13.60
2022-11-01T16:02:00.895Z,7.88
2022-11-01T16:04:30.198Z,10.30
2022-11-01T16:07:01.914Z,9.90
2022-11-01T16:09:33.565Z,8.05
2022-11-01T16:12:02.195Z,13.32
2022-11-01T16:14:36.313Z,9.95
2022-11-01T16:17:05.367Z,10.07
2022-11-01T16:19:45.379Z,6.85
2022-11-01T16:22:31.524Z,9.63
2022-11-01T16:25:20.881Z,7.03
2022-11-01T16:28:04.073Z,8.05
2022-11-01T16:30:50.835Z,9.95
2022-11-01T16:33:26.023Z,7.57
2022-11-01T16:35:56.453Z,12.02
2022-11-01T16:38:27.469Z,11.05
2022-11-01T16:40:56.487Z,10.23
2022-11-01T16:43:24.822Z,7.10
2022-11-01T16:45:52.506Z,12.77
2022-11-01T16:48:27.863Z,10.68
2022-11-01T16:50:56.027Z,9.77
2022-11-01T16:53:25.693Z,7.78
2022-11-01T16:56:01.516Z,21.45
2022-11-01T16:58:33.288Z,26.10
2022-11-01T17:01:01.744Z,15.20
2022-11-01T17:03:30.593Z,11.82
2022-11-01T17:05:58.281Z,17.80
2022-11-01T17:08:29.787Z,25.92
2022-11-01T17:10:57.819Z,22.98
2022-11-01T17:13:25.709Z,29.75
2022-11-01T17:15:53.835Z,29.13
2022-11-01T17:18:27.923Z,28.08
2022-11-01T17:23:24.364Z,21.75
2022-11-01T17:25:52.639Z,11.60
2022-11-01T17:28:20.371Z,10.55
2022-11-01T17:30:48.614Z,13.18
2022-11-01T17:33:16.039Z,10.77
2022-11-01T17:35:43.951Z,7.97
2022-11-01T17:38:14.789Z,8.10
2022-11-01T17:40:45.486Z,7.68
2022-11-01T17:43:17.269Z,6.95
2022-11-01T17:45:45.572Z,8.63
2022-11-01T17:48:14.374Z,9.35
2022-11-01T17:50:43.722Z,6.70
2022-11-01T17:53:16.371Z,9.93
2022-11-01T17:55:44.328Z,13.63
2022-11-01T17:58:12.289Z,10.27
2022-11-01T18:00:44.728Z,11.90
2022-11-01T18:03:14.983Z,14.10
2022-11-01T18:05:43.135Z,17.33
2022-11-01T18:08:16.565Z,16.50
2022-11-01T18:11:02.586Z,19.50
2022-11-01T18:13:48.797Z,21.48
2022-11-01T18:16:19.518Z,18.20
2022-11-01T18:19:22.483Z,20.48
2022-11-01T18:22:09.576Z,24.52
2022-11-01T18:24:41.130Z,29.70
2022-11-01T18:27:12.256Z,18.52
2022-11-01T18:29:41.402Z,23.65
2022-11-01T18:32:17.986Z,16.27
2022-11-01T18:34:49.679Z,19.63
2022-11-01T18:37:17.517Z,19.25
2022-11-01T18:40:05.716Z,18.73
2022-11-01T18:42:36.657Z,18.40
2022-11-01T18:45:33.897Z,25.75
2022-11-01T18:48:23.049Z,23.67
2022-11-01T18:50:57.232Z,17.08
2022-11-01T18:53:28.238Z,18.13
2022-11-01T18:55:56.033Z,16.25
2022-11-01T18:58:27.764Z,15.15
2022-11-01T19:00:55.194Z,11.88
2022-11-01T19:03:24.292Z,11.55
2022-11-01T19:05:52.146Z,20.77
2022-11-01T19:08:23.080Z,16.15
2022-11-01T19:10:51.055Z,19.05
2022-11-01T19:13:24.470Z,20.58
2022-11-01T19:15:54.644Z,21.38
2022-11-01T19:18:23.409Z,18.15
2022-11-01T19:20:53.084Z,21.45
2022-11-01T19:23:31.179Z,28.83
2022-11-01T19:25:59.368Z,32.72
2022-11-01T19:28:27.849Z,32.22
2022-11-01T19:30:57.677Z,29.52
2022-11-01T19:33:32.038Z,29.35
2022-11-01T19:38:28.161Z,25.15
2022-11-01T19:40:55.952Z,20.98
2022-11-01T19:43:27.785Z,30.33
2022-11-01T19:45:56.933Z,27.77
2022-11-01T19:48:26.711Z,21.75
2022-11-01T19:50:54.525Z,24.00
2022-11-01T19:53:42.901Z,22.90
2022-11-01T19:56:11.288Z,21.90
2022-11-01T19:58:46.448Z,16.85
2022-11-01T20:01:32.478Z,24.88
2022-11-01T20:04:01.548Z,24.38
2022-11-01T20:06:32.689Z,31.80
2022-11-01T20:09:23.369Z,22.80
2022-11-01T20:11:50.970Z,22.80
2022-11-01T20:14:18.673Z,29.67
2022-11-01T20:16:47.408Z,20.42
2022-11-01T20:19:17.626Z,18.65
2022-11-01T20:21:46.233Z,17.85
2022-11-01T20:24:14.085Z,11.70
2022-11-01T20:26:41.445Z,13.63
2022-11-01T20:29:08.977Z,15.50
2022-11-01T20:31:37.419Z,16.25
2022-11-01T20:34:06.431Z,14.05
2022-11-01T20:36:34.651Z,16.15
2022-11-01T20:39:03.301Z,16.77
2022-11-01T20:41:31.455Z,18.77
2022-11-01T20:43:59.015Z,18.13
2022-11-01T20:46:27.158Z,15.02
2022-11-01T20:48:54.854Z,13.98
2022-11-01T20:51:22.872Z,13.90
2022-11-01T20:53:51.392Z,14.93
2022-11-01T20:56:19.850Z,12.23
2022-11-01T20:58:47.917Z,13.32
2022-11-01T21:01:16.058Z,15.20
2022-11-01T21:03:44.050Z,12.95
2022-11-01T21:06:18.499Z,19.35
2022-11-01T21:11:22.955Z,16.83
2022-11-01T21:13:51.920Z,15.43
2022-11-01T21:16:29.236Z,13.07
2022-11-01T21:19:01.726Z,14.45
2022-11-01T21:21:36.191Z,16.83
2022-11-01T21:24:21.710Z,14.80
2022-11-01T21:26:53.488Z,14.80
2022-11-01T21:29:29.970Z,13.82
2022-11-01T21:31:57.466Z,11.95
2022-11-01T21:34:29.131Z,10.88
2022-11-01T21:36:57.434Z,19.48
2022-11-01T21:39:28.719Z,12.13
2022-11-01T21:42:01.882Z,12.50
2022-11-01T21:44:30.192Z,12.07
2022-11-01T21:47:02.594Z,13.85
2022-11-01T21:49:31.218Z,12.65
2022-11-01T21:52:00.663Z,18.48
2022-11-01T21:54:28.951Z,16.52
2022-11-01T21:56:57.040Z,12.02
2022-11-01T21:59:25.455Z,10.43
2022-11-01T22:01:52.867Z,12.18
2022-11-01T22:04:23.390Z,17.02
2022-11-01T22:06:53.858Z,24.05
2022-11-01T22:09:21.530Z,22.00
2022-11-01T22:11:49.007Z,23.58
2022-11-01T22:14:16.306Z,23.63
2022-11-01T22:16:43.656Z,21.77
2022-11-01T22:19:11.073Z,18.00
2022-11-01T22:21:38.559Z,20.67
2022-11-01T22:24:06.017Z,14.32
2022-11-01T22:26:33.343Z,15.13
2022-11-01T22:29:00.653Z,13.60
2022-11-01T22:31:28.006Z,11.85
2022-11-01T22:33:56.110Z,11.63
2022-11-01T22:36:25.771Z,13.82
2022-11-01T22:38:56.097Z,15.02
2022-11-01T22:41:33.640Z,15.80
2022-11-01T22:44:08.142Z,14.77
2022-11-01T22:46:46.281Z,15.25
2022-11-01T22:49:21.557Z,17.02
2022-11-01T22:51:50.911Z,15.85
2022-11-01T22:54:38.834Z,22.10
2022-11-01T22:57:09.135Z,19.90
2022-11-01T22:59:39.476Z,20.02
2022-11-01T23:02:18.898Z,16.33
2022-11-01T23:04:46.292Z,20.88
2022-11-01T23:07:21.518Z,14.65
2022-11-01T23:09:49.590Z,13.73
2022-11-01T23:12:41.622Z,12.30
2022-11-01T23:15:20.987Z,10.82
2022-11-01T23:17:49.992Z,12.27
2022-11-01T23:20:17.789Z,14.50
2022-11-01T23:22:45.371Z,9.85
2022-11-01T23:25:13.150Z,8.77
2022-11-01T23:27:42.174Z,11.75
2022-11-01T23:30:09.962Z,9.65
2022-11-01T23:32:37.533Z,16.30
2022-11-01T23:35:13.547Z,12.65
2022-11-01T23:37:41.278Z,12.02
2022-11-01T23:40:16.899Z,14.32
2022-11-01T23:42:44.751Z,13.18
2022-11-01T23:45:21.838Z,9.43
2022-11-01T23:47:49.194Z,9.93
2022-11-01T23:50:23.228Z,9.68
2022-11-01T23:52:57.990Z,12.35
2022-11-01T23:55:30.377Z,14.27
2022-11-01T23:57:59.675Z,12.88
